sensor_id;sensor_type;location;lat;lon;timestamp;temperature;humidity
34698;DHT22;61391;50.922;6.928;2022-11-20T00:01:12;4.30;99.90
34698;DHT22;61391;50.922;6.928;2022-11-20T00:03:38;4.50;99.90
34698;DHT22;61391;50.922;6.928;2022-11-20T00:09:25;4.40;99.90
34698;DHT22;61391;50.922;6.928;2022-11-20T00:11:51;4.20;99.90
34698;DHT22;61391;50.922;6.928;2022-11-20T00:14:16;4.10;99.90
34698;DHT22;61391;50.922;6.928;2022-11-20T00:16:42;4.00;99.90
34698;DHT22;61391;50.922;6.928;2022-11-20T00:19:07;4.00;99.90
34698;DHT22;61391;50.922;6.928;2022-11-20T00:21:33;4.20;99.90
34698;DHT22;61391;50.922;6.928;2022-11-20T00:23:59;4.40;99.90
34698;DHT22;61391;50.922;6.928;2022-11-20T00:26:26;4.30;99.90
34698;DHT22;61391;50.922;6.928;2022-11-20T00:28:54;4.30;99.90
34698;DHT22;61391;50.922;6.928;2022-11-20T00:31:20;4.20;99.90
34698;DHT22;61391;50.922;6.928;2022-11-20T00:33:45;4.00;99.90
34698;DHT22;61391;50.922;6.928;2022-11-20T00:36:16;4.00;99.90
34698;DHT22;61391;50.922;6.928;2022-11-20T00:38:43;3.90;99.90
34698;DHT22;61391;50.922;6.928;2022-11-20T00:41:11;4.00;99.90
34698;DHT22;61391;50.922;6.928;2022-11-20T00:43:37;4.10;99.90
34698;DHT22;61391;50.922;6.928;2022-11-20T00:46:12;4.20;99.90
34698;DHT22;61391;50.922;6.928;2022-11-20T00:48:38;4.00;99.90
34698;DHT22;61391;50.922;6.928;2022-11-20T00:54:25;4.00;99.90
34698;DHT22;61391;50.922;6.928;2022-11-20T00:56:53;4.00;99.90
34698;DHT22;61391;50.922;6.928;2022-11-20T00:59:18;4.20;99.90
34698;DHT22;61391;50.922;6.928;2022-11-20T01:01:44;4.60;99.90
34698;DHT22;61391;50.922;6.928;2022-11-20T01:04:09;4.80;99.90
34698;DHT22;61391;50.922;6.928;2022-11-20T01:06:37;5.00;99.90
34698;DHT22;61391;50.922;6.928;2022-11-20T01:09:05;5.30;99.90
34698;DHT22;61391;50.922;6.928;2022-11-20T01:11:34;4.90;99.90
34698;DHT22;61391;50.922;6.928;2022-11-20T01:14:02;4.90;99.90
34698;DHT22;61391;50.922;6.928;2022-11-20T01:16:32;4.60;99.90
34698;DHT22;61391;50.922;6.928;2022-11-20T01:19:00;4.50;99.90
34698;DHT22;61391;50.922;6.928;2022-11-20T01:21:32;4.30;99.90
34698;DHT22;61391;50.922;6.928;2022-11-20T01:23:58;4.10;99.90
34698;DHT22;61391;50.922;6.928;2022-11-20T01:26:30;4.10;99.90
34698;DHT22;61391;50.922;6.928;2022-11-20T01:28:56;4.00;99.90
34698;DHT22;61391;50.922;6.928;2022-11-20T01:31:28;4.00;99.90
34698;DHT22;61391;50.922;6.928;2022-11-20T01:33:55;4.10;99.90
34698;DHT22;61391;50.922;6.928;2022-11-20T01:36:23;4.00;99.90
34698;DHT22;61391;50.922;6.928;2022-11-20T01:38:53;4.40;99.90
34698;DHT22;61391;50.922;6.928;2022-11-20T01:41:19;4.30;99.90
34698;DHT22;61391;50.922;6.928;2022-11-20T01:44:04;4.20;99.90
34698;DHT22;61391;50.922;6.928;2022-11-20T01:46:35;4.40;99.90
34698;DHT22;61391;50.922;6.928;2022-11-20T01:49:11;4.40;99.90
34698;DHT22;61391;50.922;6.928;2022-11-20T01:51:45;4.40;99.90
34698;DHT22;61391;50.922;6.928;2022-11-20T01:54:18;4.20;99.90
34698;DHT22;61391;50.922;6.928;2022-11-20T01:56:46;4.10;99.90
34698;DHT22;61391;50.922;6.928;2022-11-20T01:59:14;3.90;99.90
34698;DHT22;61391;50.922;6.928;2022-11-20T02:01:40;3.90;99.90
34698;DHT22;61391;50.922;6.928;2022-11-20T02:04:07;3.80;99.90
34698;DHT22;61391;50.922;6.928;2022-11-20T02:06:47;3.80;99.90
34698;DHT22;61391;50.922;6.928;2022-11-20T02:09:14;3.80;99.90
34698;DHT22;61391;50.922;6.928;2022-11-20T02:11:40;3.70;99.90
34698;DHT22;61391;50.922;6.928;2022-11-20T02:14:06;3.80;99.90
34698;DHT22;61391;50.922;6.928;2022-11-20T02:16:37;3.80;99.90
34698;DHT22;61391;50.922;6.928;2022-11-20T02:19:09;3.70;99.90
34698;DHT22;61391;50.922;6.928;2022-11-20T02:21:56;3.90;99.90
34698;DHT22;61391;50.922;6.928;2022-11-20T02:24:25;3.90;99.90
34698;DHT22;61391;50.922;6.928;2022-11-20T02:29:23;3.80;99.90
34698;DHT22;61391;50.922;6.928;2022-11-20T02:31:49;3.90;99.90
34698;DHT22;61391;50.922;6.928;2022-11-20T02:34:15;4.00;99.90
34698;DHT22;61391;50.922;6.928;2022-11-20T02:40:03;3.70;99.90
34698;DHT22;61391;50.922;6.928;2022-11-20T02:42:28;3.80;99.90
34698;DHT22;61391;50.922;6.928;2022-11-20T02:44:54;3.70;99.90
34698;DHT22;61391;50.922;6.928;2022-11-20T02:47:19;3.70;99.90
34698;DHT22;61391;50.922;6.928;2022-11-20T02:49:45;3.80;99.90
34698;DHT22;61391;50.922;6.928;2022-11-20T02:52:10;3.70;99.90
34698;DHT22;61391;50.922;6.928;2022-11-20T02:54:36;3.60;99.90
34698;DHT22;61391;50.922;6.928;2022-11-20T02:57:01;3.70;99.90
34698;DHT22;61391;50.922;6.928;2022-11-20T02:59:27;3.60;99.90
34698;DHT22;61391;50.922;6.928;2022-11-20T03:05:14;3.60;99.90
34698;DHT22;61391;50.922;6.928;2022-11-20T03:07:40;3.60;99.90
34698;DHT22;61391;50.922;6.928;2022-11-20T03:10:06;3.90;99.90
34698;DHT22;61391;50.922;6.928;2022-11-20T03:12:31;3.90;99.90
34698;DHT22;61391;50.922;6.928;2022-11-20T03:14:57;3.90;99.90
34698;DHT22;61391;50.922;6.928;2022-11-20T03:17:22;3.90;99.90
34698;DHT22;61391;50.922;6.928;2022-11-20T03:19:48;4.30;99.90
34698;DHT22;61391;50.922;6.928;2022-11-20T03:22:13;4.30;99.90
34698;DHT22;61391;50.922;6.928;2022-11-20T03:24:39;4.40;99.90
34698;DHT22;61391;50.922;6.928;2022-11-20T03:27:04;4.60;99.90
34698;DHT22;61391;50.922;6.928;2022-11-20T03:29:30;4.40;99.90
34698;DHT22;61391;50.922;6.928;2022-11-20T03:31:55;4.40;99.90
34698;DHT22;61391;50.922;6.928;2022-11-20T03:34:21;4.20;99.90
34698;DHT22;61391;50.922;6.928;2022-11-20T03:36:46;4.20;99.90
34698;DHT22;61391;50.922;6.928;2022-11-20T03:39:12;4.50;99.90
34698;DHT22;61391;50.922;6.928;2022-11-20T03:41:39;4.60;99.90
34698;DHT22;61391;50.922;6.928;2022-11-20T03:44:07;4.70;99.90
34698;DHT22;61391;50.922;6.928;2022-11-20T03:46:33;4.70;99.90
34698;DHT22;61391;50.922;6.928;2022-11-20T03:48:58;4.90;99.90
34698;DHT22;61391;50.922;6.928;2022-11-20T03:51:33;4.90;99.90
34698;DHT22;61391;50.922;6.928;2022-11-20T03:54:04;4.70;99.90
34698;DHT22;61391;50.922;6.928;2022-11-20T03:56:31;4.70;99.90
34698;DHT22;61391;50.922;6.928;2022-11-20T03:58:57;4.30;99.90
34698;DHT22;61391;50.922;6.928;2022-11-20T04:01:32;4.20;99.90
34698;DHT22;61391;50.922;6.928;2022-11-20T04:03:58;4.50;99.90
34698;DHT22;61391;50.922;6.928;2022-11-20T04:06:37;4.60;99.90
34698;DHT22;61391;50.922;6.928;2022-11-20T04:09:03;4.80;99.90
34698;DHT22;61391;50.922;6.928;2022-11-20T04:11:31;4.50;99.90
34698;DHT22;61391;50.922;6.928;2022-11-20T04:14:02;4.20;99.90
34698;DHT22;61391;50.922;6.928;2022-11-20T04:16:34;4.20;99.90
34698;DHT22;61391;50.922;6.928;2022-11-20T04:19:02;4.40;99.90
34698;DHT22;61391;50.922;6.928;2022-11-20T04:21:28;4.20;99.90
34698;DHT22;61391;50.922;6.928;2022-11-20T04:23:53;4.00;99.90
34698;DHT22;61391;50.922;6.928;2022-11-20T04:26:19;3.90;99.90
34698;DHT22;61391;50.922;6.928;2022-11-20T04:28:45;3.90;99.90
34698;DHT22;61391;50.922;6.928;2022-11-20T04:31:14;3.90;99.90
34698;DHT22;61391;50.922;6.928;2022-11-20T04:33:40;3.80;99.90
34698;DHT22;61391;50.922;6.928;2022-11-20T04:36:13;4.00;99.90
34698;DHT22;61391;50.922;6.928;2022-11-20T04:38:39;4.20;99.90
34698;DHT22;61391;50.922;6.928;2022-11-20T04:41:07;4.40;99.90
34698;DHT22;61391;50.922;6.928;2022-11-20T04:43:33;4.30;99.90
34698;DHT22;61391;50.922;6.928;2022-11-20T04:49:21;4.60;99.90
34698;DHT22;61391;50.922;6.928;2022-11-20T04:51:46;4.90;99.90
34698;DHT22;61391;50.922;6.928;2022-11-20T04:54:12;4.50;99.90
34698;DHT22;61391;50.922;6.928;2022-11-20T04:56:37;4.30;99.90
34698;DHT22;61391;50.922;6.928;2022-11-20T04:59:03;4.40;99.90
34698;DHT22;61391;50.922;6.928;2022-11-20T05:01:28;4.90;99.90
34698;DHT22;61391;50.922;6.928;2022-11-20T05:03:54;4.90;99.90
34698;DHT22;61391;50.922;6.928;2022-11-20T05:06:22;5.10;99.90
34698;DHT22;61391;50.922;6.928;2022-11-20T05:08:48;5.20;99.90
34698;DHT22;61391;50.922;6.928;2022-11-20T05:11:17;5.20;99.90
34698;DHT22;61391;50.922;6.928;2022-11-20T05:13:42;5.30;99.90
34698;DHT22;61391;50.922;6.928;2022-11-20T05:16:10;5.00;99.90
34698;DHT22;61391;50.922;6.928;2022-11-20T05:18:37;5.10;99.90
34698;DHT22;61391;50.922;6.928;2022-11-20T05:21:03;5.30;99.90
34698;DHT22;61391;50.922;6.928;2022-11-20T05:23:30;5.60;99.90
34698;DHT22;61391;50.922;6.928;2022-11-20T05:25:57;5.60;99.90
34698;DHT22;61391;50.922;6.928;2022-11-20T05:28:23;5.70;99.90
34698;DHT22;61391;50.922;6.928;2022-11-20T05:30:48;5.70;99.90
34698;DHT22;61391;50.922;6.928;2022-11-20T05:33:14;5.60;99.90
34698;DHT22;61391;50.922;6.928;2022-11-20T05:35:40;5.40;99.90
34698;DHT22;61391;50.922;6.928;2022-11-20T05:38:06;5.40;99.90
34698;DHT22;61391;50.922;6.928;2022-11-20T05:40:31;5.70;99.90
34698;DHT22;61391;50.922;6.928;2022-11-20T05:42:57;5.80;99.90
34698;DHT22;61391;50.922;6.928;2022-11-20T05:45:22;5.80;99.90
34698;DHT22;61391;50.922;6.928;2022-11-20T05:47:48;5.80;99.90
34698;DHT22;61391;50.922;6.928;2022-11-20T05:50:14;5.70;99.90
34698;DHT22;61391;50.922;6.928;2022-11-20T05:52:40;5.70;99.90
34698;DHT22;61391;50.922;6.928;2022-11-20T05:55:06;5.70;99.90
34698;DHT22;61391;50.922;6.928;2022-11-20T05:57:32;5.70;99.90
34698;DHT22;61391;50.922;6.928;2022-11-20T05:59:58;5.70;99.90
34698;DHT22;61391;50.922;6.928;2022-11-20T06:02:23;5.90;99.90
34698;DHT22;61391;50.922;6.928;2022-11-20T06:04:49;5.70;99.90
34698;DHT22;61391;50.922;6.928;2022-11-20T06:07:14;5.60;99.90
34698;DHT22;61391;50.922;6.928;2022-11-20T06:09:40;5.60;99.90
34698;DHT22;61391;50.922;6.928;2022-11-20T06:12:05;5.70;99.90
34698;DHT22;61391;50.922;6.928;2022-11-20T06:14:32;5.80;99.90
34698;DHT22;61391;50.922;6.928;2022-11-20T06:16:57;6.00;99.90
34698;DHT22;61391;50.922;6.928;2022-11-20T06:19:23;6.10;99.90
34698;DHT22;61391;50.922;6.928;2022-11-20T06:21:49;6.10;99.90
34698;DHT22;61391;50.922;6.928;2022-11-20T06:24:15;6.10;99.90
34698;DHT22;61391;50.922;6.928;2022-11-20T06:26:40;6.00;99.90
34698;DHT22;61391;50.922;6.928;2022-11-20T06:29:06;5.80;99.90
34698;DHT22;61391;50.922;6.928;2022-11-20T06:31:31;5.70;99.90
34698;DHT22;61391;50.922;6.928;2022-11-20T06:34:00;5.10;99.90
34698;DHT22;61391;50.922;6.928;2022-11-20T06:36:26;4.90;99.90
34698;DHT22;61391;50.922;6.928;2022-11-20T06:38:52;5.20;99.90
34698;DHT22;61391;50.922;6.928;2022-11-20T06:41:21;5.70;99.90
34698;DHT22;61391;50.922;6.928;2022-11-20T06:43:47;5.90;99.90
34698;DHT22;61391;50.922;6.928;2022-11-20T06:46:15;5.80;99.90
34698;DHT22;61391;50.922;6.928;2022-11-20T06:48:42;5.90;99.90
34698;DHT22;61391;50.922;6.928;2022-11-20T06:51:08;5.90;99.90
34698;DHT22;61391;50.922;6.928;2022-11-20T06:53:35;6.10;99.90
34698;DHT22;61391;50.922;6.928;2022-11-20T06:56:00;6.20;99.90
34698;DHT22;61391;50.922;6.928;2022-11-20T06:58:27;6.20;99.90
34698;DHT22;61391;50.922;6.928;2022-11-20T07:00:54;5.90;99.90
34698;DHT22;61391;50.922;6.928;2022-11-20T07:03:19;5.70;99.90
34698;DHT22;61391;50.922;6.928;2022-11-20T07:05:45;5.80;99.90
34698;DHT22;61391;50.922;6.928;2022-11-20T07:08:11;5.90;99.90
34698;DHT22;61391;50.922;6.928;2022-11-20T07:10:37;6.10;99.90
34698;DHT22;61391;50.922;6.928;2022-11-20T07:13:03;6.20;99.90
34698;DHT22;61391;50.922;6.928;2022-11-20T07:15:29;6.10;99.90
34698;DHT22;61391;50.922;6.928;2022-11-20T07:17:55;6.00;99.90
34698;DHT22;61391;50.922;6.928;2022-11-20T07:20:20;6.00;99.90
34698;DHT22;61391;50.922;6.928;2022-11-20T07:22:46;6.20;99.90
34698;DHT22;61391;50.922;6.928;2022-11-20T07:25:12;6.20;99.90
34698;DHT22;61391;50.922;6.928;2022-11-20T07:27:37;6.00;99.90
34698;DHT22;61391;50.922;6.928;2022-11-20T07:30:03;5.80;99.90
34698;DHT22;61391;50.922;6.928;2022-11-20T07:32:29;5.80;99.90
34698;DHT22;61391;50.922;6.928;2022-11-20T07:34:55;5.90;99.90
34698;DHT22;61391;50.922;6.928;2022-11-20T07:37:20;5.80;99.90
34698;DHT22;61391;50.922;6.928;2022-11-20T07:39:46;5.60;99.90
34698;DHT22;61391;50.922;6.928;2022-11-20T07:42:11;5.50;99.90
34698;DHT22;61391;50.922;6.928;2022-11-20T07:44:38;5.70;99.90
34698;DHT22;61391;50.922;6.928;2022-11-20T07:47:03;5.90;99.90
34698;DHT22;61391;50.922;6.928;2022-11-20T07:49:29;6.00;99.90
34698;DHT22;61391;50.922;6.928;2022-11-20T07:51:55;5.90;99.90
34698;DHT22;61391;50.922;6.928;2022-11-20T07:54:21;5.50;99.90
34698;DHT22;61391;50.922;6.928;2022-11-20T07:56:48;5.30;99.90
34698;DHT22;61391;50.922;6.928;2022-11-20T07:59:13;5.20;99.90
34698;DHT22;61391;50.922;6.928;2022-11-20T08:01:40;5.00;99.90
34698;DHT22;61391;50.922;6.928;2022-11-20T08:04:05;4.80;99.90
34698;DHT22;61391;50.922;6.928;2022-11-20T08:06:31;5.10;99.90
34698;DHT22;61391;50.922;6.928;2022-11-20T08:08:57;5.00;99.90
34698;DHT22;61391;50.922;6.928;2022-11-20T08:11:23;4.80;99.90
34698;DHT22;61391;50.922;6.928;2022-11-20T08:14:07;4.80;99.90
34698;DHT22;61391;50.922;6.928;2022-11-20T08:16:43;4.70;99.90
34698;DHT22;61391;50.922;6.928;2022-11-20T08:19:11;4.90;99.90
34698;DHT22;61391;50.922;6.928;2022-11-20T08:21:36;5.20;99.90
34698;DHT22;61391;50.922;6.928;2022-11-20T08:24:02;5.40;99.90
34698;DHT22;61391;50.922;6.928;2022-11-20T08:26:28;5.30;99.90
34698;DHT22;61391;50.922;6.928;2022-11-20T08:28:55;5.40;99.90
34698;DHT22;61391;50.922;6.928;2022-11-20T08:31:22;5.60;99.90
34698;DHT22;61391;50.922;6.928;2022-11-20T08:33:48;5.50;99.90
34698;DHT22;61391;50.922;6.928;2022-11-20T08:36:13;5.40;99.90
34698;DHT22;61391;50.922;6.928;2022-11-20T08:38:39;5.40;99.90
34698;DHT22;61391;50.922;6.928;2022-11-20T08:41:05;5.50;99.90
34698;DHT22;61391;50.922;6.928;2022-11-20T08:43:50;5.50;99.90
34698;DHT22;61391;50.922;6.928;2022-11-20T08:46:16;5.30;99.90
34698;DHT22;61391;50.922;6.928;2022-11-20T08:48:43;5.70;99.90
34698;DHT22;61391;50.922;6.928;2022-11-20T08:51:08;5.50;99.90
34698;DHT22;61391;50.922;6.928;2022-11-20T08:53:34;5.60;99.90
34698;DHT22;61391;50.922;6.928;2022-11-20T08:56:00;5.50;99.90
34698;DHT22;61391;50.922;6.928;2022-11-20T08:58:26;5.60;99.90
34698;DHT22;61391;50.922;6.928;2022-11-20T09:00:51;5.60;99.90
34698;DHT22;61391;50.922;6.928;2022-11-20T09:03:17;5.30;99.90
34698;DHT22;61391;50.922;6.928;2022-11-20T09:05:42;5.40;99.90
34698;DHT22;61391;50.922;6.928;2022-11-20T09:08:09;5.80;99.90
34698;DHT22;61391;50.922;6.928;2022-11-20T09:10:34;5.80;99.90
34698;DHT22;61391;50.922;6.928;2022-11-20T09:13:00;6.20;99.90
34698;DHT22;61391;50.922;6.928;2022-11-20T09:15:26;6.70;99.90
34698;DHT22;61391;50.922;6.928;2022-11-20T09:17:52;6.40;99.90
34698;DHT22;61391;50.922;6.928;2022-11-20T09:20:18;6.20;99.90
34698;DHT22;61391;50.922;6.928;2022-11-20T09:22:45;6.20;99.90
34698;DHT22;61391;50.922;6.928;2022-11-20T09:25:10;5.90;99.90
34698;DHT22;61391;50.922;6.928;2022-11-20T09:27:36;5.80;99.90
34698;DHT22;61391;50.922;6.928;2022-11-20T09:30:03;5.60;99.90
34698;DHT22;61391;50.922;6.928;2022-11-20T09:32:28;5.80;99.90
34698;DHT22;61391;50.922;6.928;2022-11-20T09:34:54;5.90;99.90
34698;DHT22;61391;50.922;6.928;2022-11-20T09:37:19;5.70;99.90
34698;DHT22;61391;50.922;6.928;2022-11-20T09:39:45;5.80;99.90
34698;DHT22;61391;50.922;6.928;2022-11-20T09:55:29;6.20;99.90
34698;DHT22;61391;50.922;6.928;2022-11-20T09:57:56;5.80;99.90
34698;DHT22;61391;50.922;6.928;2022-11-20T10:00:23;6.10;99.90
34698;DHT22;61391;50.922;6.928;2022-11-20T10:03:01;6.00;99.90
34698;DHT22;61391;50.922;6.928;2022-11-20T10:08:16;5.90;99.90
34698;DHT22;61391;50.922;6.928;2022-11-20T10:13:23;6.00;99.90
34698;DHT22;61391;50.922;6.928;2022-11-20T10:21:38;5.40;99.90
34698;DHT22;61391;50.922;6.928;2022-11-20T10:27:02;5.80;99.90
34698;DHT22;61391;50.922;6.928;2022-11-20T10:29:33;6.00;99.90
34698;DHT22;61391;50.922;6.928;2022-11-20T10:32:07;6.10;99.90
34698;DHT22;61391;50.922;6.928;2022-11-20T10:34:47;6.40;99.90
34698;DHT22;61391;50.922;6.928;2022-11-20T10:37:18;6.60;99.90
34698;DHT22;61391;50.922;6.928;2022-11-20T10:47:56;5.30;99.90
34698;DHT22;61391;50.922;6.928;2022-11-20T10:50:24;5.40;99.90
34698;DHT22;61391;50.922;6.928;2022-11-20T10:53:16;5.30;99.90
34698;DHT22;61391;50.922;6.928;2022-11-20T10:55:48;5.30;99.90
34698;DHT22;61391;50.922;6.928;2022-11-20T11:01:40;5.20;99.90
34698;DHT22;61391;50.922;6.928;2022-11-20T11:04:22;5.30;99.90
34698;DHT22;61391;50.922;6.928;2022-11-20T11:06:49;5.50;99.90
34698;DHT22;61391;50.922;6.928;2022-11-20T11:09:31;5.50;99.90
34698;DHT22;61391;50.922;6.928;2022-11-20T11:11:58;5.60;99.90
34698;DHT22;61391;50.922;6.928;2022-11-20T11:14:24;5.80;99.90
34698;DHT22;61391;50.922;6.928;2022-11-20T11:19:19;6.00;99.90
34698;DHT22;61391;50.922;6.928;2022-11-20T11:21:56;5.70;99.90
34698;DHT22;61391;50.922;6.928;2022-11-20T11:24:28;5.70;99.90
34698;DHT22;61391;50.922;6.928;2022-11-20T11:26:55;5.80;99.90
34698;DHT22;61391;50.922;6.928;2022-11-20T11:29:21;5.80;99.90
34698;DHT22;61391;50.922;6.928;2022-11-20T11:31:46;5.90;99.90
34698;DHT22;61391;50.922;6.928;2022-11-20T11:34:14;6.10;99.90
34698;DHT22;61391;50.922;6.928;2022-11-20T11:36:41;6.50;99.90
34698;DHT22;61391;50.922;6.928;2022-11-20T11:39:14;6.30;99.90
34698;DHT22;61391;50.922;6.928;2022-11-20T11:41:41;6.30;99.90
34698;DHT22;61391;50.922;6.928;2022-11-20T11:44:37;6.20;99.90
34698;DHT22;61391;50.922;6.928;2022-11-20T11:47:29;5.90;99.90
34698;DHT22;61391;50.922;6.928;2022-11-20T11:55:42;5.90;99.90
34698;DHT22;61391;50.922;6.928;2022-11-20T11:58:16;6.20;99.90
34698;DHT22;61391;50.922;6.928;2022-11-20T12:00:58;6.00;99.90
34698;DHT22;61391;50.922;6.928;2022-11-20T12:03:34;6.00;99.90
34698;DHT22;61391;50.922;6.928;2022-11-20T12:06:05;6.10;99.90
34698;DHT22;61391;50.922;6.928;2022-11-20T12:08:44;6.10;99.90
34698;DHT22;61391;50.922;6.928;2022-11-20T12:11:29;6.10;99.90
34698;DHT22;61391;50.922;6.928;2022-11-20T12:16:28;6.00;99.90
34698;DHT22;61391;50.922;6.928;2022-11-20T12:18:55;6.00;99.90
34698;DHT22;61391;50.922;6.928;2022-11-20T12:21:33;5.80;99.90
34698;DHT22;61391;50.922;6.928;2022-11-20T12:24:19;5.70;99.90
34698;DHT22;61391;50.922;6.928;2022-11-20T12:37:52;6.30;99.90
34698;DHT22;61391;50.922;6.928;2022-11-20T12:40:32;6.20;99.90
34698;DHT22;61391;50.922;6.928;2022-11-20T12:43:19;6.20;99.90
34698;DHT22;61391;50.922;6.928;2022-11-20T12:48:59;6.00;99.90
34698;DHT22;61391;50.922;6.928;2022-11-20T13:02:37;6.00;99.90
34698;DHT22;61391;50.922;6.928;2022-11-20T13:05:21;6.10;99.90
34698;DHT22;61391;50.922;6.928;2022-11-20T13:07:51;6.20;99.90
34698;DHT22;61391;50.922;6.928;2022-11-20T13:10:31;6.40;99.90
34698;DHT22;61391;50.922;6.928;2022-11-20T13:13:14;6.60;99.90
34698;DHT22;61391;50.922;6.928;2022-11-20T13:18:15;6.30;99.90
34698;DHT22;61391;50.922;6.928;2022-11-20T13:20:43;6.20;99.90
34698;DHT22;61391;50.922;6.928;2022-11-20T13:23:09;6.40;99.90
34698;DHT22;61391;50.922;6.928;2022-11-20T13:25:36;6.20;99.90
34698;DHT22;61391;50.922;6.928;2022-11-20T13:28:28;6.10;99.90
34698;DHT22;61391;50.922;6.928;2022-11-20T13:33:59;6.30;99.90
34698;DHT22;61391;50.922;6.928;2022-11-20T13:36:27;6.40;99.90
34698;DHT22;61391;50.922;6.928;2022-11-20T13:38:55;6.40;99.90
34698;DHT22;61391;50.922;6.928;2022-11-20T13:41:28;6.40;99.90
34698;DHT22;61391;50.922;6.928;2022-11-20T13:44:14;6.40;99.90
34698;DHT22;61391;50.922;6.928;2022-11-20T13:46:47;6.50;99.90
34698;DHT22;61391;50.922;6.928;2022-11-20T13:49:26;6.60;99.90
34698;DHT22;61391;50.922;6.928;2022-11-20T13:55:02;6.30;99.90
34698;DHT22;61391;50.922;6.928;2022-11-20T13:57:42;6.20;99.90
34698;DHT22;61391;50.922;6.928;2022-11-20T14:00:15;6.50;99.90
34698;DHT22;61391;50.922;6.928;2022-11-20T14:02:41;6.70;99.90
34698;DHT22;61391;50.922;6.928;2022-11-20T14:05:20;6.60;99.90
34698;DHT22;61391;50.922;6.928;2022-11-20T14:07:48;6.60;99.90
34698;DHT22;61391;50.922;6.928;2022-11-20T14:10:26;6.80;99.90
34698;DHT22;61391;50.922;6.928;2022-11-20T14:12:52;6.70;99.90
34698;DHT22;61391;50.922;6.928;2022-11-20T14:17:50;6.40;99.90
34698;DHT22;61391;50.922;6.928;2022-11-20T14:20:16;6.40;99.90
34698;DHT22;61391;50.922;6.928;2022-11-20T14:22:50;6.30;99.90
34698;DHT22;61391;50.922;6.928;2022-11-20T14:27:46;6.20;99.90
34698;DHT22;61391;50.922;6.928;2022-11-20T14:30:27;6.40;99.90
34698;DHT22;61391;50.922;6.928;2022-11-20T14:32:56;6.40;99.90
34698;DHT22;61391;50.922;6.928;2022-11-20T14:35:31;6.50;99.90
34698;DHT22;61391;50.922;6.928;2022-11-20T14:38:01;6.50;99.90
34698;DHT22;61391;50.922;6.928;2022-11-20T14:40:30;6.60;99.90
34698;DHT22;61391;50.922;6.928;2022-11-20T14:42:58;6.70;99.90
34698;DHT22;61391;50.922;6.928;2022-11-20T14:45:25;6.50;99.90
34698;DHT22;61391;50.922;6.928;2022-11-20T14:47:56;6.50;99.90
34698;DHT22;61391;50.922;6.928;2022-11-20T14:50:28;6.50;99.90
34698;DHT22;61391;50.922;6.928;2022-11-20T14:52:58;6.80;99.90
34698;DHT22;61391;50.922;6.928;2022-11-20T14:55:36;6.60;99.90
34698;DHT22;61391;50.922;6.928;2022-11-20T14:58:20;6.60;99.90
34698;DHT22;61391;50.922;6.928;2022-11-20T15:01:05;6.60;99.90
34698;DHT22;61391;50.922;6.928;2022-11-20T15:03:39;6.50;99.90
34698;DHT22;61391;50.922;6.928;2022-11-20T15:06:10;6.60;99.90
34698;DHT22;61391;50.922;6.928;2022-11-20T15:08:36;6.60;99.90
34698;DHT22;61391;50.922;6.928;2022-11-20T15:11:03;6.70;99.90
34698;DHT22;61391;50.922;6.928;2022-11-20T15:13:34;6.80;99.90
34698;DHT22;61391;50.922;6.928;2022-11-20T15:16:21;6.70;99.90
34698;DHT22;61391;50.922;6.928;2022-11-20T15:18:48;6.70;99.90
34698;DHT22;61391;50.922;6.928;2022-11-20T15:21:16;6.80;99.90
34698;DHT22;61391;50.922;6.928;2022-11-20T15:23:42;6.70;99.90
34698;DHT22;61391;50.922;6.928;2022-11-20T15:26:09;6.70;99.90
34698;DHT22;61391;50.922;6.928;2022-11-20T15:28:45;6.60;99.90
34698;DHT22;61391;50.922;6.928;2022-11-20T15:31:17;6.50;99.90
34698;DHT22;61391;50.922;6.928;2022-11-20T15:33:43;6.50;99.90
34698;DHT22;61391;50.922;6.928;2022-11-20T15:36:09;6.50;99.90
34698;DHT22;61391;50.922;6.928;2022-11-20T15:38:35;6.50;99.90
34698;DHT22;61391;50.922;6.928;2022-11-20T15:41:01;6.30;99.90
34698;DHT22;61391;50.922;6.928;2022-11-20T15:43:26;6.20;99.90
34698;DHT22;61391;50.922;6.928;2022-11-20T15:45:58;6.30;99.90
34698;DHT22;61391;50.922;6.928;2022-11-20T15:48:25;6.30;99.90
34698;DHT22;61391;50.922;6.928;2022-11-20T15:53:35;6.40;99.90
34698;DHT22;61391;50.922;6.928;2022-11-20T15:56:01;6.50;99.90
34698;DHT22;61391;50.922;6.928;2022-11-20T15:58:26;6.50;99.90
34698;DHT22;61391;50.922;6.928;2022-11-20T16:00:52;6.60;99.90
34698;DHT22;61391;50.922;6.928;2022-11-20T16:03:18;6.60;99.90
34698;DHT22;61391;50.922;6.928;2022-11-20T16:05:44;6.50;99.90
34698;DHT22;61391;50.922;6.928;2022-11-20T16:08:10;6.50;99.90
34698;DHT22;61391;50.922;6.928;2022-11-20T16:10:36;6.60;99.90
34698;DHT22;61391;50.922;6.928;2022-11-20T16:13:03;6.60;99.90
34698;DHT22;61391;50.922;6.928;2022-11-20T16:15:51;6.70;99.90
34698;DHT22;61391;50.922;6.928;2022-11-20T16:18:20;6.90;99.90
34698;DHT22;61391;50.922;6.928;2022-11-20T16:20:48;6.80;99.90
34698;DHT22;61391;50.922;6.928;2022-11-20T16:23:14;6.70;99.90
34698;DHT22;61391;50.922;6.928;2022-11-20T16:25:41;6.80;99.90
34698;DHT22;61391;50.922;6.928;2022-11-20T16:28:07;6.80;99.90
34698;DHT22;61391;50.922;6.928;2022-11-20T16:30:33;6.80;99.90
34698;DHT22;61391;50.922;6.928;2022-11-20T16:32:59;6.80;99.90
34698;DHT22;61391;50.922;6.928;2022-11-20T16:35:29;7.10;99.90
34698;DHT22;61391;50.922;6.928;2022-11-20T16:37:55;7.00;99.90
34698;DHT22;61391;50.922;6.928;2022-11-20T16:40:22;7.10;99.90
34698;DHT22;61391;50.922;6.928;2022-11-20T16:42:47;7.10;99.90
34698;DHT22;61391;50.922;6.928;2022-11-20T16:45:13;7.10;99.90
34698;DHT22;61391;50.922;6.928;2022-11-20T16:47:38;7.00;99.90
34698;DHT22;61391;50.922;6.928;2022-11-20T16:50:04;7.00;99.90
34698;DHT22;61391;50.922;6.928;2022-11-20T16:52:30;7.00;99.90
34698;DHT22;61391;50.922;6.928;2022-11-20T16:54:57;7.00;99.90
34698;DHT22;61391;50.922;6.928;2022-11-20T16:57:22;6.90;99.90
34698;DHT22;61391;50.922;6.928;2022-11-20T16:59:48;6.90;99.90
34698;DHT22;61391;50.922;6.928;2022-11-20T17:02:17;7.00;99.90
34698;DHT22;61391;50.922;6.928;2022-11-20T17:04:42;6.90;99.90
34698;DHT22;61391;50.922;6.928;2022-11-20T17:10:30;6.90;99.90
34698;DHT22;61391;50.922;6.928;2022-11-20T17:12:55;7.00;99.90
34698;DHT22;61391;50.922;6.928;2022-11-20T17:15:21;6.90;99.90
34698;DHT22;61391;50.922;6.928;2022-11-20T17:17:46;6.90;99.90
34698;DHT22;61391;50.922;6.928;2022-11-20T17:20:12;6.80;99.90
34698;DHT22;61391;50.922;6.928;2022-11-20T17:22:38;6.80;99.90
34698;DHT22;61391;50.922;6.928;2022-11-20T17:25:03;6.80;99.90
34698;DHT22;61391;50.922;6.928;2022-11-20T17:27:29;6.70;99.90
34698;DHT22;61391;50.922;6.928;2022-11-20T17:29:54;6.70;99.90
34698;DHT22;61391;50.922;6.928;2022-11-20T17:32:22;6.60;99.90
34698;DHT22;61391;50.922;6.928;2022-11-20T17:34:47;6.60;99.90
34698;DHT22;61391;50.922;6.928;2022-11-20T17:37:13;6.60;99.90
34698;DHT22;61391;50.922;6.928;2022-11-20T17:39:38;6.60;99.90
34698;DHT22;61391;50.922;6.928;2022-11-20T17:42:05;6.60;99.90
34698;DHT22;61391;50.922;6.928;2022-11-20T17:44:49;6.70;99.90
34698;DHT22;61391;50.922;6.928;2022-11-20T17:47:14;6.70;99.90